sensor_id;sensor_type;location;lat;lon;timestamp;temperature;humidity
11577;DHT22;5844;51.496;6.788;2023-05-24T00:01:50;8.60;1.00
11577;DHT22;5844;51.496;6.788;2023-05-24T00:04:16;8.50;1.00
11577;DHT22;5844;51.496;6.788;2023-05-24T00:06:43;8.50;1.00
11577;DHT22;5844;51.496;6.788;2023-05-24T00:09:09;8.40;1.00
11577;DHT22;5844;51.496;6.788;2023-05-24T00:11:36;8.40;1.00
11577;DHT22;5844;51.496;6.788;2023-05-24T00:14:01;8.40;1.00
11577;DHT22;5844;51.496;6.788;2023-05-24T00:16:27;8.40;1.00
11577;DHT22;5844;51.496;6.788;2023-05-24T00:18:53;8.30;1.00
11577;DHT22;5844;51.496;6.788;2023-05-24T00:21:19;8.30;1.00
11577;DHT22;5844;51.496;6.788;2023-05-24T00:23:45;8.20;1.00
11577;DHT22;5844;51.496;6.788;2023-05-24T00:26:11;8.20;1.00
11577;DHT22;5844;51.496;6.788;2023-05-24T00:28:37;8.20;1.00
11577;DHT22;5844;51.496;6.788;2023-05-24T00:31:03;8.10;1.00
11577;DHT22;5844;51.496;6.788;2023-05-24T00:33:28;8.10;1.00
11577;DHT22;5844;51.496;6.788;2023-05-24T00:35:54;8.10;1.00
11577;DHT22;5844;51.496;6.788;2023-05-24T00:38:24;8.00;1.00
11577;DHT22;5844;51.496;6.788;2023-05-24T00:40:51;8.00;1.00
11577;DHT22;5844;51.496;6.788;2023-05-24T00:43:16;8.00;1.00
11577;DHT22;5844;51.496;6.788;2023-05-24T00:45:42;7.90;1.00
11577;DHT22;5844;51.496;6.788;2023-05-24T00:48:09;7.90;1.00
11577;DHT22;5844;51.496;6.788;2023-05-24T00:50:36;8.00;1.00
11577;DHT22;5844;51.496;6.788;2023-05-24T00:53:02;8.00;1.00
11577;DHT22;5844;51.496;6.788;2023-05-24T00:55:28;7.90;1.00
11577;DHT22;5844;51.496;6.788;2023-05-24T00:57:56;7.80;1.00
11577;DHT22;5844;51.496;6.788;2023-05-24T01:00:22;7.70;1.00
11577;DHT22;5844;51.496;6.788;2023-05-24T01:02:49;7.60;1.00
11577;DHT22;5844;51.496;6.788;2023-05-24T01:05:16;7.60;1.00
11577;DHT22;5844;51.496;6.788;2023-05-24T01:13:03;7.50;1.00
11577;DHT22;5844;51.496;6.788;2023-05-24T01:16:16;7.40;1.00
11577;DHT22;5844;51.496;6.788;2023-05-24T01:18:53;7.40;1.00
11577;DHT22;5844;51.496;6.788;2023-05-24T01:24:27;7.40;1.00
11577;DHT22;5844;51.496;6.788;2023-05-24T01:27:10;7.30;1.00
11577;DHT22;5844;51.496;6.788;2023-05-24T01:29:38;7.30;1.00
11577;DHT22;5844;51.496;6.788;2023-05-24T01:32:04;7.30;1.00
11577;DHT22;5844;51.496;6.788;2023-05-24T01:34:30;7.20;1.00
11577;DHT22;5844;51.496;6.788;2023-05-24T01:36:56;7.20;1.00
11577;DHT22;5844;51.496;6.788;2023-05-24T01:39:25;7.20;1.00
11577;DHT22;5844;51.496;6.788;2023-05-24T01:42:24;7.30;1.00
11577;DHT22;5844;51.496;6.788;2023-05-24T01:45:05;7.30;1.00
11577;DHT22;5844;51.496;6.788;2023-05-24T01:47:57;7.20;1.00
11577;DHT22;5844;51.496;6.788;2023-05-24T01:50:35;7.20;1.00
11577;DHT22;5844;51.496;6.788;2023-05-24T01:53:05;7.10;1.00
11577;DHT22;5844;51.496;6.788;2023-05-24T01:55:32;7.10;1.00
11577;DHT22;5844;51.496;6.788;2023-05-24T01:58:01;7.10;1.00
11577;DHT22;5844;51.496;6.788;2023-05-24T02:00:28;7.10;1.00
11577;DHT22;5844;51.496;6.788;2023-05-24T02:02:55;7.10;1.00
11577;DHT22;5844;51.496;6.788;2023-05-24T02:05:21;7.10;1.00
11577;DHT22;5844;51.496;6.788;2023-05-24T02:07:46;7.10;1.00
11577;DHT22;5844;51.496;6.788;2023-05-24T02:10:12;7.00;1.00
11577;DHT22;5844;51.496;6.788;2023-05-24T02:12:37;7.00;1.00
11577;DHT22;5844;51.496;6.788;2023-05-24T02:15:03;7.00;1.00
11577;DHT22;5844;51.496;6.788;2023-05-24T02:17:29;6.90;1.00
11577;DHT22;5844;51.496;6.788;2023-05-24T02:19:58;6.90;1.00
11577;DHT22;5844;51.496;6.788;2023-05-24T02:22:24;6.90;1.00
11577;DHT22;5844;51.496;6.788;2023-05-24T02:24:50;6.80;1.00
11577;DHT22;5844;51.496;6.788;2023-05-24T02:27:16;6.80;1.00
11577;DHT22;5844;51.496;6.788;2023-05-24T02:29:41;6.70;1.00
11577;DHT22;5844;51.496;6.788;2023-05-24T02:32:07;6.70;1.00
11577;DHT22;5844;51.496;6.788;2023-05-24T02:34:33;6.70;1.00
11577;DHT22;5844;51.496;6.788;2023-05-24T02:36:58;6.70;1.00
11577;DHT22;5844;51.496;6.788;2023-05-24T02:39:24;6.80;1.00
11577;DHT22;5844;51.496;6.788;2023-05-24T02:41:50;6.70;1.00
11577;DHT22;5844;51.496;6.788;2023-05-24T02:44:16;6.70;1.00
11577;DHT22;5844;51.496;6.788;2023-05-24T02:46:41;6.70;1.00
11577;DHT22;5844;51.496;6.788;2023-05-24T02:49:07;6.70;1.00
11577;DHT22;5844;51.496;6.788;2023-05-24T02:51:34;6.70;1.00
11577;DHT22;5844;51.496;6.788;2023-05-24T02:54:01;6.60;1.00
11577;DHT22;5844;51.496;6.788;2023-05-24T02:56:27;6.70;1.00
11577;DHT22;5844;51.496;6.788;2023-05-24T02:58:54;6.70;1.00
11577;DHT22;5844;51.496;6.788;2023-05-24T03:01:20;6.70;1.00
11577;DHT22;5844;51.496;6.788;2023-05-24T03:03:46;6.60;1.00
11577;DHT22;5844;51.496;6.788;2023-05-24T03:06:12;6.70;1.00
11577;DHT22;5844;51.496;6.788;2023-05-24T03:08:41;6.60;1.00
11577;DHT22;5844;51.496;6.788;2023-05-24T03:11:06;6.60;1.00
11577;DHT22;5844;51.496;6.788;2023-05-24T03:13:32;6.60;1.00
11577;DHT22;5844;51.496;6.788;2023-05-24T03:15:57;6.60;1.00
11577;DHT22;5844;51.496;6.788;2023-05-24T03:18:23;6.60;1.00
11577;DHT22;5844;51.496;6.788;2023-05-24T03:20:49;6.60;1.00
11577;DHT22;5844;51.496;6.788;2023-05-24T03:23:15;6.70;1.00
11577;DHT22;5844;51.496;6.788;2023-05-24T03:25:40;6.60;1.00
11577;DHT22;5844;51.496;6.788;2023-05-24T03:28:06;6.60;1.00
11577;DHT22;5844;51.496;6.788;2023-05-24T03:30:32;6.60;1.00
11577;DHT22;5844;51.496;6.788;2023-05-24T03:32:58;6.50;1.00
11577;DHT22;5844;51.496;6.788;2023-05-24T03:35:23;6.60;1.00
11577;DHT22;5844;51.496;6.788;2023-05-24T03:37:49;6.60;1.00
11577;DHT22;5844;51.496;6.788;2023-05-24T03:40:15;6.50;1.00
11577;DHT22;5844;51.496;6.788;2023-05-24T03:42:40;6.50;1.00
11577;DHT22;5844;51.496;6.788;2023-05-24T03:45:07;6.50;1.00
11577;DHT22;5844;51.496;6.788;2023-05-24T03:47:32;6.60;1.00
11577;DHT22;5844;51.496;6.788;2023-05-24T03:49:58;6.60;1.00
11577;DHT22;5844;51.496;6.788;2023-05-24T03:52:24;6.60;1.00
11577;DHT22;5844;51.496;6.788;2023-05-24T03:54:50;6.70;1.00
11577;DHT22;5844;51.496;6.788;2023-05-24T03:57:16;6.80;1.00
11577;DHT22;5844;51.496;6.788;2023-05-24T03:59:42;6.80;1.00
11577;DHT22;5844;51.496;6.788;2023-05-24T04:02:07;6.80;1.00
11577;DHT22;5844;51.496;6.788;2023-05-24T04:04:33;6.90;1.00
11577;DHT22;5844;51.496;6.788;2023-05-24T04:06:59;6.90;1.00
11577;DHT22;5844;51.496;6.788;2023-05-24T04:09:24;6.90;1.00
11577;DHT22;5844;51.496;6.788;2023-05-24T04:11:50;6.90;1.00
11577;DHT22;5844;51.496;6.788;2023-05-24T04:14:16;6.90;1.00
11577;DHT22;5844;51.496;6.788;2023-05-24T04:16:41;6.90;1.00
11577;DHT22;5844;51.496;6.788;2023-05-24T04:19:10;7.00;1.00
11577;DHT22;5844;51.496;6.788;2023-05-24T04:21:37;7.10;1.00
11577;DHT22;5844;51.496;6.788;2023-05-24T04:24:05;7.20;1.00
11577;DHT22;5844;51.496;6.788;2023-05-24T04:26:31;7.40;1.00
11577;DHT22;5844;51.496;6.788;2023-05-24T04:28:58;7.50;1.00
11577;DHT22;5844;51.496;6.788;2023-05-24T04:31:24;7.80;1.00
11577;DHT22;5844;51.496;6.788;2023-05-24T04:33:53;8.10;1.00
11577;DHT22;5844;51.496;6.788;2023-05-24T04:36:20;8.20;1.00
11577;DHT22;5844;51.496;6.788;2023-05-24T04:38:47;8.40;1.00
11577;DHT22;5844;51.496;6.788;2023-05-24T04:41:13;8.60;1.00
11577;DHT22;5844;51.496;6.788;2023-05-24T04:43:38;8.70;1.00
11577;DHT22;5844;51.496;6.788;2023-05-24T04:46:05;8.90;1.00
11577;DHT22;5844;51.496;6.788;2023-05-24T04:48:30;9.00;1.00
11577;DHT22;5844;51.496;6.788;2023-05-24T04:50:56;9.10;1.00
11577;DHT22;5844;51.496;6.788;2023-05-24T04:53:25;9.20;1.00
11577;DHT22;5844;51.496;6.788;2023-05-24T04:55:51;9.30;1.00
11577;DHT22;5844;51.496;6.788;2023-05-24T04:58:17;9.40;1.00
11577;DHT22;5844;51.496;6.788;2023-05-24T05:00:43;9.40;1.00
11577;DHT22;5844;51.496;6.788;2023-05-24T05:03:09;9.50;1.00
11577;DHT22;5844;51.496;6.788;2023-05-24T05:05:35;9.60;1.00
11577;DHT22;5844;51.496;6.788;2023-05-24T05:08:01;9.80;1.00
11577;DHT22;5844;51.496;6.788;2023-05-24T05:10:27;9.80;1.00
11577;DHT22;5844;51.496;6.788;2023-05-24T05:12:53;10.00;1.00
11577;DHT22;5844;51.496;6.788;2023-05-24T05:15:22;10.10;1.00
11577;DHT22;5844;51.496;6.788;2023-05-24T05:17:49;10.20;1.00
11577;DHT22;5844;51.496;6.788;2023-05-24T05:20:15;10.30;1.00
11577;DHT22;5844;51.496;6.788;2023-05-24T05:22:47;10.40;1.00
11577;DHT22;5844;51.496;6.788;2023-05-24T05:25:13;10.50;1.00
11577;DHT22;5844;51.496;6.788;2023-05-24T05:27:39;10.70;1.00
11577;DHT22;5844;51.496;6.788;2023-05-24T05:30:05;10.70;1.00
11577;DHT22;5844;51.496;6.788;2023-05-24T05:32:32;10.70;1.00
11577;DHT22;5844;51.496;6.788;2023-05-24T05:34:58;10.60;1.00
11577;DHT22;5844;51.496;6.788;2023-05-24T05:37:24;10.60;1.00
11577;DHT22;5844;51.496;6.788;2023-05-24T05:39:50;10.60;1.00
11577;DHT22;5844;51.496;6.788;2023-05-24T05:42:15;10.60;1.00
11577;DHT22;5844;51.496;6.788;2023-05-24T05:44:42;10.70;1.00
11577;DHT22;5844;51.496;6.788;2023-05-24T05:47:07;10.60;1.00
11577;DHT22;5844;51.496;6.788;2023-05-24T05:49:33;10.60;1.00
11577;DHT22;5844;51.496;6.788;2023-05-24T05:52:05;10.70;1.00
11577;DHT22;5844;51.496;6.788;2023-05-24T05:54:31;10.70;1.00
11577;DHT22;5844;51.496;6.788;2023-05-24T05:56:57;10.80;1.00
11577;DHT22;5844;51.496;6.788;2023-05-24T05:59:23;10.80;1.00
11577;DHT22;5844;51.496;6.788;2023-05-24T06:01:49;10.80;1.00
11577;DHT22;5844;51.496;6.788;2023-05-24T06:04:15;10.80;1.00
11577;DHT22;5844;51.496;6.788;2023-05-24T06:06:41;10.90;1.00
11577;DHT22;5844;51.496;6.788;2023-05-24T06:09:09;11.00;1.00
11577;DHT22;5844;51.496;6.788;2023-05-24T06:11:35;11.00;1.00
11577;DHT22;5844;51.496;6.788;2023-05-24T06:14:01;11.00;1.00
11577;DHT22;5844;51.496;6.788;2023-05-24T06:16:27;11.10;1.00
11577;DHT22;5844;51.496;6.788;2023-05-24T06:18:53;11.10;1.00
11577;DHT22;5844;51.496;6.788;2023-05-24T06:21:19;11.20;1.00
11577;DHT22;5844;51.496;6.788;2023-05-24T06:23:46;11.30;1.00
11577;DHT22;5844;51.496;6.788;2023-05-24T06:26:11;11.40;1.00
11577;DHT22;5844;51.496;6.788;2023-05-24T06:28:37;11.60;1.00
11577;DHT22;5844;51.496;6.788;2023-05-24T06:31:03;11.70;1.00
11577;DHT22;5844;51.496;6.788;2023-05-24T06:33:30;11.70;1.00
11577;DHT22;5844;51.496;6.788;2023-05-24T06:35:58;11.80;1.00
11577;DHT22;5844;51.496;6.788;2023-05-24T06:38:24;11.80;1.00
11577;DHT22;5844;51.496;6.788;2023-05-24T06:40:49;11.90;1.00
11577;DHT22;5844;51.496;6.788;2023-05-24T06:43:15;12.10;1.00
11577;DHT22;5844;51.496;6.788;2023-05-24T06:45:41;12.30;1.00
11577;DHT22;5844;51.496;6.788;2023-05-24T06:48:07;12.50;1.00
11577;DHT22;5844;51.496;6.788;2023-05-24T06:50:33;12.80;1.00
11577;DHT22;5844;51.496;6.788;2023-05-24T06:52:58;13.00;1.00
11577;DHT22;5844;51.496;6.788;2023-05-24T06:55:24;13.10;1.00
11577;DHT22;5844;51.496;6.788;2023-05-24T06:57:50;13.30;1.00
11577;DHT22;5844;51.496;6.788;2023-05-24T07:00:16;13.60;1.00
11577;DHT22;5844;51.496;6.788;2023-05-24T07:02:41;13.70;1.00
11577;DHT22;5844;51.496;6.788;2023-05-24T07:05:07;13.70;1.00
11577;DHT22;5844;51.496;6.788;2023-05-24T07:07:43;13.70;1.00
11577;DHT22;5844;51.496;6.788;2023-05-24T07:10:12;13.70;1.00
11577;DHT22;5844;51.496;6.788;2023-05-24T07:12:38;13.80;1.00
11577;DHT22;5844;51.496;6.788;2023-05-24T07:15:04;13.80;1.00
11577;DHT22;5844;51.496;6.788;2023-05-24T07:17:30;13.80;1.00
11577;DHT22;5844;51.496;6.788;2023-05-24T07:19:56;13.80;1.00
11577;DHT22;5844;51.496;6.788;2023-05-24T07:22:21;13.90;1.00
11577;DHT22;5844;51.496;6.788;2023-05-24T07:24:48;14.10;1.00
11577;DHT22;5844;51.496;6.788;2023-05-24T07:27:14;14.30;1.00
11577;DHT22;5844;51.496;6.788;2023-05-24T07:29:40;14.60;1.00
11577;DHT22;5844;51.496;6.788;2023-05-24T07:32:07;14.80;1.00
11577;DHT22;5844;51.496;6.788;2023-05-24T07:34:33;14.80;1.00
11577;DHT22;5844;51.496;6.788;2023-05-24T07:36:59;14.70;1.00
11577;DHT22;5844;51.496;6.788;2023-05-24T07:39:26;14.80;1.00
11577;DHT22;5844;51.496;6.788;2023-05-24T07:41:53;14.90;1.00
11577;DHT22;5844;51.496;6.788;2023-05-24T07:44:19;14.90;1.00
11577;DHT22;5844;51.496;6.788;2023-05-24T07:46:45;15.00;1.00
11577;DHT22;5844;51.496;6.788;2023-05-24T07:49:10;15.20;1.00
11577;DHT22;5844;51.496;6.788;2023-05-24T07:51:37;15.10;1.00
11577;DHT22;5844;51.496;6.788;2023-05-24T07:54:03;15.00;1.00
11577;DHT22;5844;51.496;6.788;2023-05-24T07:56:29;14.80;1.00
11577;DHT22;5844;51.496;6.788;2023-05-24T07:58:55;14.80;1.00
11577;DHT22;5844;51.496;6.788;2023-05-24T08:01:31;14.80;1.00
11577;DHT22;5844;51.496;6.788;2023-05-24T08:03:59;14.70;1.00
11577;DHT22;5844;51.496;6.788;2023-05-24T08:06:24;14.70;1.00
11577;DHT22;5844;51.496;6.788;2023-05-24T08:08:50;14.60;1.00
11577;DHT22;5844;51.496;6.788;2023-05-24T08:11:16;14.60;1.00
11577;DHT22;5844;51.496;6.788;2023-05-24T08:13:43;14.70;1.00
11577;DHT22;5844;51.496;6.788;2023-05-24T08:16:08;14.70;1.00
11577;DHT22;5844;51.496;6.788;2023-05-24T08:18:34;14.80;1.00
11577;DHT22;5844;51.496;6.788;2023-05-24T08:20:59;14.90;1.00
11577;DHT22;5844;51.496;6.788;2023-05-24T08:23:25;14.90;1.00
11577;DHT22;5844;51.496;6.788;2023-05-24T08:25:51;14.90;1.00
11577;DHT22;5844;51.496;6.788;2023-05-24T08:28:18;15.10;1.00
11577;DHT22;5844;51.496;6.788;2023-05-24T08:30:44;15.40;1.00
11577;DHT22;5844;51.496;6.788;2023-05-24T08:33:09;15.80;1.00
11577;DHT22;5844;51.496;6.788;2023-05-24T08:35:35;15.90;1.00
11577;DHT22;5844;51.496;6.788;2023-05-24T08:38:01;16.20;1.00
11577;DHT22;5844;51.496;6.788;2023-05-24T08:40:27;16.40;1.00
11577;DHT22;5844;51.496;6.788;2023-05-24T08:42:54;16.60;1.00
11577;DHT22;5844;51.496;6.788;2023-05-24T08:45:25;16.60;1.00
11577;DHT22;5844;51.496;6.788;2023-05-24T08:47:54;16.70;1.00
11577;DHT22;5844;51.496;6.788;2023-05-24T08:50:21;16.80;1.00
11577;DHT22;5844;51.496;6.788;2023-05-24T08:52:47;17.20;1.00
11577;DHT22;5844;51.496;6.788;2023-05-24T08:55:14;17.60;1.00
11577;DHT22;5844;51.496;6.788;2023-05-24T08:57:40;18.20;1.00
11577;DHT22;5844;51.496;6.788;2023-05-24T09:00:07;18.50;1.00
11577;DHT22;5844;51.496;6.788;2023-05-24T09:02:38;18.50;1.00
11577;DHT22;5844;51.496;6.788;2023-05-24T09:05:07;18.60;1.00
11577;DHT22;5844;51.496;6.788;2023-05-24T09:07:34;18.30;1.00
11577;DHT22;5844;51.496;6.788;2023-05-24T09:10:04;18.00;1.00
11577;DHT22;5844;51.496;6.788;2023-05-24T09:12:31;17.90;1.00
11577;DHT22;5844;51.496;6.788;2023-05-24T09:14:57;17.50;1.00
11577;DHT22;5844;51.496;6.788;2023-05-24T09:17:23;17.40;1.00
11577;DHT22;5844;51.496;6.788;2023-05-24T09:19:50;16.90;1.00
11577;DHT22;5844;51.496;6.788;2023-05-24T09:22:17;16.80;1.00
11577;DHT22;5844;51.496;6.788;2023-05-24T09:24:48;16.70;1.00
11577;DHT22;5844;51.496;6.788;2023-05-24T09:27:15;16.80;1.00
11577;DHT22;5844;51.496;6.788;2023-05-24T09:29:46;16.80;1.00
11577;DHT22;5844;51.496;6.788;2023-05-24T09:32:14;17.00;1.00
11577;DHT22;5844;51.496;6.788;2023-05-24T09:34:44;17.50;1.00
11577;DHT22;5844;51.496;6.788;2023-05-24T09:37:18;17.60;1.00
11577;DHT22;5844;51.496;6.788;2023-05-24T09:39:44;17.90;1.00
11577;DHT22;5844;51.496;6.788;2023-05-24T09:42:18;18.80;1.00
11577;DHT22;5844;51.496;6.788;2023-05-24T09:45:04;19.60;1.00
11577;DHT22;5844;51.496;6.788;2023-05-24T09:47:42;20.90;1.00
11577;DHT22;5844;51.496;6.788;2023-05-24T09:50:14;21.50;1.00
11577;DHT22;5844;51.496;6.788;2023-05-24T09:52:41;22.30;1.00
11577;DHT22;5844;51.496;6.788;2023-05-24T09:58:02;22.90;1.00
11577;DHT22;5844;51.496;6.788;2023-05-24T10:00:28;22.40;1.00
11577;DHT22;5844;51.496;6.788;2023-05-24T10:03:05;21.50;1.00
11577;DHT22;5844;51.496;6.788;2023-05-24T10:05:35;20.50;1.00
11577;DHT22;5844;51.496;6.788;2023-05-24T10:08:02;19.60;1.00
11577;DHT22;5844;51.496;6.788;2023-05-24T10:10:31;19.20;1.00
11577;DHT22;5844;51.496;6.788;2023-05-24T10:12:58;19.00;1.00
11577;DHT22;5844;51.496;6.788;2023-05-24T10:15:24;19.20;1.00
11577;DHT22;5844;51.496;6.788;2023-05-24T10:17:52;19.80;1.00
11577;DHT22;5844;51.496;6.788;2023-05-24T10:20:18;20.10;1.00
11577;DHT22;5844;51.496;6.788;2023-05-24T10:22:45;20.00;1.00
11577;DHT22;5844;51.496;6.788;2023-05-24T10:25:19;20.30;1.00
11577;DHT22;5844;51.496;6.788;2023-05-24T10:27:48;20.10;1.00
11577;DHT22;5844;51.496;6.788;2023-05-24T10:32:48;19.90;1.00
11577;DHT22;5844;51.496;6.788;2023-05-24T10:35:15;19.90;1.00
11577;DHT22;5844;51.496;6.788;2023-05-24T10:37:42;19.70;1.00
11577;DHT22;5844;51.496;6.788;2023-05-24T10:40:20;19.90;1.00
11577;DHT22;5844;51.496;6.788;2023-05-24T10:42:47;19.90;1.00
11577;DHT22;5844;51.496;6.788;2023-05-24T10:47:51;21.10;1.00
11577;DHT22;5844;51.496;6.788;2023-05-24T10:50:19;21.00;1.00
11577;DHT22;5844;51.496;6.788;2023-05-24T10:52:45;20.80;1.00
11577;DHT22;5844;51.496;6.788;2023-05-24T10:55:12;20.40;1.00
11577;DHT22;5844;51.496;6.788;2023-05-24T10:57:39;19.80;1.00
11577;DHT22;5844;51.496;6.788;2023-05-24T11:02:50;18.80;1.00
11577;DHT22;5844;51.496;6.788;2023-05-24T11:05:16;18.30;1.00
11577;DHT22;5844;51.496;6.788;2023-05-24T11:07:43;18.00;1.00
11577;DHT22;5844;51.496;6.788;2023-05-24T11:10:31;17.80;1.00
11577;DHT22;5844;51.496;6.788;2023-05-24T11:13:01;17.50;1.00
11577;DHT22;5844;51.496;6.788;2023-05-24T11:15:28;17.30;1.00
11577;DHT22;5844;51.496;6.788;2023-05-24T11:20:38;17.10;1.00
11577;DHT22;5844;51.496;6.788;2023-05-24T11:23:05;17.00;1.00
11577;DHT22;5844;51.496;6.788;2023-05-24T11:25:32;16.90;1.00
11577;DHT22;5844;51.496;6.788;2023-05-24T11:28:10;16.80;1.00
11577;DHT22;5844;51.496;6.788;2023-05-24T11:30:40;16.90;1.00
11577;DHT22;5844;51.496;6.788;2023-05-24T11:33:22;17.00;1.00
11577;DHT22;5844;51.496;6.788;2023-05-24T11:35:50;17.10;1.00
11577;DHT22;5844;51.496;6.788;2023-05-24T11:38:17;17.10;1.00
11577;DHT22;5844;51.496;6.788;2023-05-24T11:40:44;17.10;1.00
11577;DHT22;5844;51.496;6.788;2023-05-24T11:43:18;17.10;1.00
11577;DHT22;5844;51.496;6.788;2023-05-24T11:45:47;17.20;1.00
11577;DHT22;5844;51.496;6.788;2023-05-24T11:48:14;17.20;1.00
11577;DHT22;5844;51.496;6.788;2023-05-24T11:50:43;17.20;1.00
11577;DHT22;5844;51.496;6.788;2023-05-24T11:53:13;17.40;1.00
11577;DHT22;5844;51.496;6.788;2023-05-24T11:55:40;17.50;1.00
11577;DHT22;5844;51.496;6.788;2023-05-24T11:58:28;17.90;1.00
11577;DHT22;5844;51.496;6.788;2023-05-24T12:00:57;18.50;1.00
11577;DHT22;5844;51.496;6.788;2023-05-24T12:03:23;19.10;1.00
11577;DHT22;5844;51.496;6.788;2023-05-24T12:05:49;19.60;1.00
11577;DHT22;5844;51.496;6.788;2023-05-24T12:08:14;19.80;1.00
11577;DHT22;5844;51.496;6.788;2023-05-24T12:10:41;20.50;1.00
11577;DHT22;5844;51.496;6.788;2023-05-24T12:13:24;21.20;1.00
11577;DHT22;5844;51.496;6.788;2023-05-24T12:15:54;21.70;1.00
11577;DHT22;5844;51.496;6.788;2023-05-24T12:18:21;22.10;1.00
11577;DHT22;5844;51.496;6.788;2023-05-24T12:20:50;22.70;1.00
11577;DHT22;5844;51.496;6.788;2023-05-24T12:23:20;23.80;1.00
11577;DHT22;5844;51.496;6.788;2023-05-24T12:25:47;24.60;1.00
11577;DHT22;5844;51.496;6.788;2023-05-24T12:28:12;25.10;1.00
11577;DHT22;5844;51.496;6.788;2023-05-24T12:30:38;25.60;1.00
11577;DHT22;5844;51.496;6.788;2023-05-24T12:33:09;25.20;1.00
11577;DHT22;5844;51.496;6.788;2023-05-24T12:35:44;25.70;1.00
11577;DHT22;5844;51.496;6.788;2023-05-24T12:38:11;26.60;1.00
11577;DHT22;5844;51.496;6.788;2023-05-24T12:40:36;27.00;1.00
11577;DHT22;5844;51.496;6.788;2023-05-24T12:43:07;28.20;1.00
11577;DHT22;5844;51.496;6.788;2023-05-24T12:45:35;28.80;1.00
11577;DHT22;5844;51.496;6.788;2023-05-24T12:48:01;28.00;1.00
11577;DHT22;5844;51.496;6.788;2023-05-24T12:50:29;26.90;1.00
11577;DHT22;5844;51.496;6.788;2023-05-24T12:52:56;25.00;1.00
11577;DHT22;5844;51.496;6.788;2023-05-24T12:55:22;23.70;1.00
11577;DHT22;5844;51.496;6.788;2023-05-24T12:57:48;22.90;1.00
11577;DHT22;5844;51.496;6.788;2023-05-24T13:00:19;22.50;1.00
11577;DHT22;5844;51.496;6.788;2023-05-24T13:02:45;22.10;1.00
11577;DHT22;5844;51.496;6.788;2023-05-24T13:05:11;21.80;1.00
11577;DHT22;5844;51.496;6.788;2023-05-24T13:07:37;21.50;1.00
11577;DHT22;5844;51.496;6.788;2023-05-24T13:10:04;21.10;1.00
11577;DHT22;5844;51.496;6.788;2023-05-24T13:12:31;20.80;1.00
11577;DHT22;5844;51.496;6.788;2023-05-24T13:14:56;20.70;1.00
11577;DHT22;5844;51.496;6.788;2023-05-24T13:17:22;20.60;1.00
11577;DHT22;5844;51.496;6.788;2023-05-24T13:19:48;20.60;1.00
11577;DHT22;5844;51.496;6.788;2023-05-24T13:22:14;20.80;1.00
11577;DHT22;5844;51.496;6.788;2023-05-24T13:24:39;20.90;1.00
11577;DHT22;5844;51.496;6.788;2023-05-24T13:27:06;20.70;1.00
11577;DHT22;5844;51.496;6.788;2023-05-24T13:29:32;20.40;1.00
11577;DHT22;5844;51.496;6.788;2023-05-24T13:31:57;20.20;1.00
11577;DHT22;5844;51.496;6.788;2023-05-24T13:34:23;20.10;1.00
11577;DHT22;5844;51.496;6.788;2023-05-24T13:36:52;20.10;1.00
11577;DHT22;5844;51.496;6.788;2023-05-24T13:39:19;20.30;1.00
11577;DHT22;5844;51.496;6.788;2023-05-24T13:41:45;20.80;1.00
11577;DHT22;5844;51.496;6.788;2023-05-24T13:44:12;21.20;1.00
11577;DHT22;5844;51.496;6.788;2023-05-24T13:46:38;21.40;1.00
11577;DHT22;5844;51.496;6.788;2023-05-24T13:49:04;22.30;1.00
11577;DHT22;5844;51.496;6.788;2023-05-24T13:51:30;23.50;1.00
11577;DHT22;5844;51.496;6.788;2023-05-24T13:53:56;23.50;1.00
11577;DHT22;5844;51.496;6.788;2023-05-24T13:56:21;23.60;1.00
11577;DHT22;5844;51.496;6.788;2023-05-24T13:58:48;24.60;1.00
11577;DHT22;5844;51.496;6.788;2023-05-24T14:01:14;25.30;1.00
11577;DHT22;5844;51.496;6.788;2023-05-24T14:03:40;25.00;1.00
11577;DHT22;5844;51.496;6.788;2023-05-24T14:06:07;24.00;1.00
11577;DHT22;5844;51.496;6.788;2023-05-24T14:08:32;23.00;1.00
11577;DHT22;5844;51.496;6.788;2023-05-24T14:10:58;22.10;1.00
11577;DHT22;5844;51.496;6.788;2023-05-24T14:13:24;21.20;1.00
11577;DHT22;5844;51.496;6.788;2023-05-24T14:15:49;20.80;1.00
11577;DHT22;5844;51.496;6.788;2023-05-24T14:18:15;20.70;1.00
11577;DHT22;5844;51.496;6.788;2023-05-24T14:20:41;20.60;1.00
11577;DHT22;5844;51.496;6.788;2023-05-24T14:23:07;20.80;1.00
11577;DHT22;5844;51.496;6.788;2023-05-24T14:25:33;21.30;1.00
11577;DHT22;5844;51.496;6.788;2023-05-24T14:27:58;22.00;1.00
11577;DHT22;5844;51.496;6.788;2023-05-24T14:30:30;22.20;1.00
11577;DHT22;5844;51.496;6.788;2023-05-24T14:32:57;22.10;1.00
11577;DHT22;5844;51.496;6.788;2023-05-24T14:35:22;21.70;1.00
11577;DHT22;5844;51.496;6.788;2023-05-24T14:37:48;21.30;1.00
11577;DHT22;5844;51.496;6.788;2023-05-24T14:40:14;20.60;1.00
11577;DHT22;5844;51.496;6.788;2023-05-24T14:42:40;20.10;1.00
11577;DHT22;5844;51.496;6.788;2023-05-24T14:45:06;19.80;1.00
11577;DHT22;5844;51.496;6.788;2023-05-24T14:47:32;19.60;1.00
11577;DHT22;5844;51.496;6.788;2023-05-24T14:49:57;19.20;1.00
11577;DHT22;5844;51.496;6.788;2023-05-24T14:52:23;19.00;1.00
11577;DHT22;5844;51.496;6.788;2023-05-24T14:54:49;18.80;1.00
11577;DHT22;5844;51.496;6.788;2023-05-24T14:57:14;18.60;1.00
11577;DHT22;5844;51.496;6.788;2023-05-24T14:59:40;18.40;1.00
11577;DHT22;5844;51.496;6.788;2023-05-24T15:02:06;18.40;1.00
11577;DHT22;5844;51.496;6.788;2023-05-24T15:04:32;18.40;1.00
11577;DHT22;5844;51.496;6.788;2023-05-24T15:06:57;18.40;1.00
11577;DHT22;5844;51.496;6.788;2023-05-24T15:09:23;18.50;1.00
11577;DHT22;5844;51.496;6.788;2023-05-24T15:11:48;18.60;1.00
11577;DHT22;5844;51.496;6.788;2023-05-24T15:14:14;18.70;1.00
11577;DHT22;5844;51.496;6.788;2023-05-24T15:16:40;18.70;1.00
11577;DHT22;5844;51.496;6.788;2023-05-24T15:19:05;18.80;1.00
11577;DHT22;5844;51.496;6.788;2023-05-24T15:21:31;19.10;1.00
11577;DHT22;5844;51.496;6.788;2023-05-24T15:23:56;20.50;1.00
11577;DHT22;5844;51.496;6.788;2023-05-24T15:36:44;28.40;1.00
11577;DHT22;5844;51.496;6.788;2023-05-24T15:39:10;27.70;1.00
11577;DHT22;5844;51.496;6.788;2023-05-24T15:41:35;26.30;1.00
11577;DHT22;5844;51.496;6.788;2023-05-24T15:44:02;24.70;1.00
11577;DHT22;5844;51.496;6.788;2023-05-24T15:46:33;23.70;1.00
11577;DHT22;5844;51.496;6.788;2023-05-24T15:48:59;22.90;1.00
11577;DHT22;5844;51.496;6.788;2023-05-24T15:51:24;22.30;1.00
11577;DHT22;5844;51.496;6.788;2023-05-24T15:53:50;21.40;1.00
11577;DHT22;5844;51.496;6.788;2023-05-24T15:56:16;20.90;1.00
11577;DHT22;5844;51.496;6.788;2023-05-24T15:58:42;20.30;1.00
11577;DHT22;5844;51.496;6.788;2023-05-24T16:01:07;19.80;1.00
11577;DHT22;5844;51.496;6.788;2023-05-24T16:03:33;19.40;1.00
11577;DHT22;5844;51.496;6.788;2023-05-24T16:05:59;19.00;1.00
11577;DHT22;5844;51.496;6.788;2023-05-24T16:08:25;18.60;1.00
11577;DHT22;5844;51.496;6.788;2023-05-24T16:10:53;18.50;1.00
11577;DHT22;5844;51.496;6.788;2023-05-24T16:13:19;18.60;1.00
11577;DHT22;5844;51.496;6.788;2023-05-24T16:15:46;18.70;1.00
11577;DHT22;5844;51.496;6.788;2023-05-24T16:18:16;18.70;1.00
11577;DHT22;5844;51.496;6.788;2023-05-24T16:20:43;18.80;1.00
11577;DHT22;5844;51.496;6.788;2023-05-24T16:23:10;18.70;1.00
11577;DHT22;5844;51.496;6.788;2023-05-24T16:25:36;18.60;1.00
11577;DHT22;5844;51.496;6.788;2023-05-24T16:28:01;18.50;1.00
11577;DHT22;5844;51.496;6.788;2023-05-24T16:30:28;18.60;1.00
11577;DHT22;5844;51.496;6.788;2023-05-24T16:32:54;18.70;1.00
11577;DHT22;5844;51.496;6.788;2023-05-24T16:35:19;18.70;1.00
11577;DHT22;5844;51.496;6.788;2023-05-24T16:37:45;19.20;1.00
11577;DHT22;5844;51.496;6.788;2023-05-24T16:40:12;19.60;1.00